Wetterdaten: Woche 22.04.13 - 28.04.13 (KW17)
Datum Zeit Temperatur Luftfeuchte Luftdruck Niederschlag Windrichtung Sonnenschein Solar Wind
22.04.2013 00:00 7,7 C 97 % 1015,7 hPa 0,0 l/m N 0,00 h 0 W/m 1,6 km/h (1 Bft)
22.04.2013 01:00 7,6 C 97 % 1015,7 hPa 0,0 l/m N-NW 0,00 h 0 W/m 4,3 km/h (1 Bft)
22.04.2013 02:00 7,4 C 97 % 1015,4 hPa 0,0 l/m NW 0,00 h 0 W/m 3,3 km/h (1 Bft)
22.04.2013 03:00 7,3 C 97 % 1015,2 hPa 0,0 l/m N 0,00 h 0 W/m 0,3 km/h (0 Bft)
22.04.2013 04:00 7,2 C 97 % 1015,2 hPa 0,0 l/m N 0,00 h 0 W/m 1,2 km/h (1 Bft)
22.04.2013 05:00 7,2 C 97 % 1015,3 hPa 0,0 l/m N 0,00 h 0 W/m 0,7 km/h (0 Bft)
22.04.2013 06:00 7,1 C 98 % 1015,4 hPa 0,0 l/m N 0,00 h 6 W/m 0,0 km/h (0 Bft)
22.04.2013 07:00 7,1 C 98 % 1015,5 hPa 0,0 l/m N 0,00 h 17 W/m 0,1 km/h (0 Bft)
22.04.2013 08:00 7,2 C 98 % 1015,7 hPa 0,0 l/m N 0,00 h 40 W/m 1,5 km/h (1 Bft)
22.04.2013 09:00 7,7 C 98 % 1016,0 hPa 0,0 l/m N 0,00 h 67 W/m 2,8 km/h (1 Bft)
22.04.2013 10:00 8,3 C 95 % 1016,2 hPa 0,0 l/m NW 0,00 h 102 W/m 2,9 km/h (1 Bft)
22.04.2013 11:00 9,5 C 88 % 1015,9 hPa 0,0 l/m NW 0,25 h 337 W/m 6,8 km/h (2 Bft)
22.04.2013 12:00 10,3 C 79 % 1015,6 hPa 0,0 l/m N 0,00 h 200 W/m 6,7 km/h (2 Bft)
22.04.2013 13:00 10,7 C 75 % 1015,5 hPa 0,0 l/m N 0,00 h 160 W/m 4,7 km/h (1 Bft)
22.04.2013 14:00 10,6 C 75 % 1015,6 hPa 0,0 l/m N 0,00 h 108 W/m 2,9 km/h (1 Bft)
22.04.2013 15:00 11,1 C 73 % 1015,3 hPa 0,0 l/m O-NO 0,00 h 168 W/m 3,6 km/h (1 Bft)
22.04.2013 16:00 11,9 C 70 % 1015,0 hPa 0,0 l/m O 0,25 h 261 W/m 6,7 km/h (2 Bft)
22.04.2013 17:00 11,7 C 68 % 1015,1 hPa 0,0 l/m NO 0,00 h 121 W/m 8,7 km/h (2 Bft)
22.04.2013 18:00 11,3 C 71 % 1015,2 hPa 0,0 l/m NO 0,00 h 54 W/m 6,1 km/h (2 Bft)
22.04.2013 19:00 10,9 C 75 % 1015,9 hPa 0,0 l/m N-NO 0,00 h 16 W/m 4,8 km/h (1 Bft)
22.04.2013 20:00 10,5 C 78 % 1016,6 hPa 0,0 l/m N 0,00 h 0 W/m 2,5 km/h (1 Bft)
22.04.2013 21:00 9,9 C 82 % 1017,4 hPa 0,0 l/m N 0,00 h 0 W/m 2,9 km/h (1 Bft)
22.04.2013 22:00 9,4 C 85 % 1017,7 hPa 0,0 l/m N 0,00 h 0 W/m 0,1 km/h (0 Bft)
22.04.2013 23:00 9,0 C 86 % 1018,0 hPa 0,0 l/m N 0,00 h 0 W/m 0,7 km/h (0 Bft)
23.04.2013 00:00 8,7 C 88 % 1018,2 hPa 0,0 l/m N 0,00 h 0 W/m 0,1 km/h (0 Bft)
23.04.2013 01:00 8,4 C 90 % 1018,1 hPa 0,0 l/m N 0,00 h 0 W/m 0,4 km/h (0 Bft)
23.04.2013 02:00 8,1 C 91 % 1018,0 hPa 0,0 l/m N 0,00 h 0 W/m 0,4 km/h (0 Bft)
23.04.2013 03:00 7,9 C 92 % 1018,1 hPa 0,0 l/m N 0,00 h 0 W/m 1,1 km/h (0 Bft)
23.04.2013 04:00 7,8 C 93 % 1018,3 hPa 0,0 l/m N 0,00 h 0 W/m 0,4 km/h (0 Bft)
23.04.2013 05:00 7,7 C 94 % 1018,5 hPa 0,0 l/m N 0,00 h 0 W/m 0,4 km/h (0 Bft)
23.04.2013 06:00 7,6 C 94 % 1019,0 hPa 0,0 l/m N 0,00 h 7 W/m 0,1 km/h (0 Bft)
23.04.2013 07:00 7,6 C 95 % 1019,5 hPa 0,0 l/m N 0,00 h 21 W/m 0,0 km/h (0 Bft)
23.04.2013 08:00 8,2 C 95 % 1020,2 hPa 0,0 l/m N 0,00 h 73 W/m 0,3 km/h (0 Bft)
23.04.2013 09:00 10,3 C 85 % 1020,7 hPa 0,0 l/m N-NO 0,50 h 267 W/m 3,9 km/h (1 Bft)
23.04.2013 10:00 12,1 C 70 % 1021,2 hPa 0,0 l/m N 1,00 h 492 W/m 8,7 km/h (2 Bft)
23.04.2013 11:00 13,0 C 63 % 1021,4 hPa 0,0 l/m N-NW 0,50 h 382 W/m 6,0 km/h (2 Bft)
23.04.2013 12:00 13,5 C 61 % 1021,5 hPa 0,0 l/m N 0,00 h 295 W/m 5,1 km/h (1 Bft)
23.04.2013 13:00 13,9 C 63 % 1021,5 hPa 0,0 l/m SW 0,17 h 366 W/m 8,6 km/h (2 Bft)
23.04.2013 14:00 15,3 C 58 % 1021,1 hPa 0,0 l/m SW 0,75 h 563 W/m 11,5 km/h (2 Bft)
23.04.2013 15:00 14,6 C 60 % 1021,0 hPa 0,0 l/m SW 0,00 h 166 W/m 8,7 km/h (2 Bft)
23.04.2013 16:00 14,8 C 60 % 1021,0 hPa 0,0 l/m SW 0,17 h 197 W/m 7,4 km/h (2 Bft)
23.04.2013 17:00 15,9 C 57 % 1020,7 hPa 0,0 l/m W 0,83 h 455 W/m 10,6 km/h (2 Bft)
23.04.2013 18:00 14,5 C 60 % 1020,9 hPa 0,0 l/m W-NW 0,00 h 56 W/m 4,3 km/h (1 Bft)
23.04.2013 19:00 14,2 C 62 % 1021,2 hPa 0,0 l/m N 0,00 h 35 W/m 2,8 km/h (1 Bft)
23.04.2013 20:00 13,0 C 68 % 1021,8 hPa 0,0 l/m N 0,00 h 9 W/m 0,8 km/h (0 Bft)
23.04.2013 21:00 10,9 C 75 % 1022,7 hPa 0,0 l/m N 0,00 h 0 W/m 0,1 km/h (0 Bft)
23.04.2013 22:00 9,2 C 80 % 1023,3 hPa 0,0 l/m N 0,00 h 0 W/m 0,0 km/h (0 Bft)
23.04.2013 23:00 7,9 C 84 % 1023,5 hPa 0,0 l/m N 0,00 h 0 W/m 0,0 km/h (0 Bft)
24.04.2013 00:00 6,9 C 86 % 1023,8 hPa 0,0 l/m N 0,00 h 0 W/m 0,1 km/h (0 Bft)
24.04.2013 01:00 6,2 C 88 % 1024,0 hPa 0,0 l/m N 0,00 h 0 W/m 0,0 km/h (0 Bft)
24.04.2013 02:00 5,6 C 90 % 1024,2 hPa 0,0 l/m N 0,00 h 0 W/m 0,1 km/h (0 Bft)
24.04.2013 03:00 5,2 C 91 % 1024,4 hPa 0,0 l/m N 0,00 h 0 W/m 0,0 km/h (0 Bft)
24.04.2013 04:00 4,7 C 92 % 1024,7 hPa 0,0 l/m N 0,00 h 0 W/m 0,0 km/h (0 Bft)
24.04.2013 05:00 4,2 C 92 % 1025,0 hPa 0,0 l/m N 0,00 h 0 W/m 0,0 km/h (0 Bft)
24.04.2013 06:00 3,7 C 92 % 1025,2 hPa 0,0 l/m N 0,00 h 13 W/m 0,1 km/h (0 Bft)
24.04.2013 07:00 5,1 C 95 % 1025,5 hPa 0,0 l/m N 0,17 h 92 W/m 0,0 km/h (0 Bft)
24.04.2013 08:00 8,0 C 90 % 1025,9 hPa 0,0 l/m N 1,00 h 248 W/m 0,8 km/h (0 Bft)
24.04.2013 09:00 11,5 C 81 % 1026,2 hPa 0,0 l/m S-SW 1,00 h 406 W/m 6,7 km/h (2 Bft)
24.04.2013 10:00 14,0 C 71 % 1026,3 hPa 0,0 l/m S-SW 1,00 h 555 W/m 11,4 km/h (2 Bft)
24.04.2013 11:00 15,5 C 62 % 1026,2 hPa 0,0 l/m SW 1,00 h 715 W/m 12,2 km/h (2 Bft)
24.04.2013 12:00 17,4 C 56 % 1025,9 hPa 0,0 l/m SW 1,00 h 806 W/m 12,1 km/h (2 Bft)
24.04.2013 13:00 18,4 C 52 % 1025,5 hPa 0,0 l/m SW 1,00 h 827 W/m 14,9 km/h (3 Bft)
24.04.2013 14:00 19,5 C 49 % 1025,0 hPa 0,0 l/m W-SW 1,00 h 809 W/m 14,9 km/h (3 Bft)
24.04.2013 15:00 20,3 C 48 % 1024,4 hPa 0,0 l/m SW 1,00 h 734 W/m 15,8 km/h (3 Bft)
24.04.2013 16:00 20,5 C 44 % 1023,8 hPa 0,0 l/m SW 1,00 h 603 W/m 17,8 km/h (3 Bft)
24.04.2013 17:00 20,5 C 43 % 1023,6 hPa 0,0 l/m W-SW 1,00 h 478 W/m 15,4 km/h (3 Bft)
24.04.2013 18:00 20,2 C 41 % 1023,5 hPa 0,0 l/m W 1,00 h 297 W/m 12,5 km/h (3 Bft)
24.04.2013 19:00 19,1 C 46 % 1023,5 hPa 0,0 l/m W-SW 0,42 h 81 W/m 7,5 km/h (2 Bft)
24.04.2013 20:00 15,9 C 60 % 1023,7 hPa 0,0 l/m N 0,00 h 9 W/m 2,1 km/h (1 Bft)
24.04.2013 21:00 13,2 C 73 % 1024,2 hPa 0,0 l/m N 0,00 h 0 W/m 0,1 km/h (0 Bft)
24.04.2013 22:00 11,6 C 79 % 1024,7 hPa 0,0 l/m N 0,00 h 0 W/m 0,0 km/h (0 Bft)
24.04.2013 23:00 10,4 C 82 % 1024,8 hPa 0,0 l/m W-SW 0,00 h 0 W/m 1,1 km/h (0 Bft)
25.04.2013 00:00 9,8 C 85 % 1025,0 hPa 0,0 l/m N 0,00 h 0 W/m 0,3 km/h (0 Bft)
25.04.2013 01:00 9,0 C 86 % 1025,0 hPa 0,0 l/m N 0,00 h 0 W/m 0,0 km/h (0 Bft)
25.04.2013 02:00 8,3 C 86 % 1024,7 hPa 0,0 l/m N 0,00 h 0 W/m 0,0 km/h (0 Bft)
25.04.2013 03:00 7,6 C 87 % 1024,4 hPa 0,0 l/m N 0,00 h 0 W/m 0,0 km/h (0 Bft)
25.04.2013 04:00 6,9 C 89 % 1024,4 hPa 0,0 l/m N 0,00 h 0 W/m 0,0 km/h (0 Bft)
25.04.2013 05:00 6,4 C 90 % 1024,4 hPa 0,0 l/m N 0,00 h 0 W/m 0,0 km/h (0 Bft)
25.04.2013 06:00 5,9 C 91 % 1024,6 hPa 0,0 l/m N 0,00 h 14 W/m 0,0 km/h (0 Bft)
25.04.2013 07:00 7,4 C 91 % 1024,8 hPa 0,0 l/m N 0,25 h 101 W/m 0,0 km/h (0 Bft)
25.04.2013 08:00 11,0 C 81 % 1024,8 hPa 0,0 l/m N 1,00 h 275 W/m 0,0 km/h (0 Bft)
25.04.2013 09:00 14,0 C 67 % 1024,8 hPa 0,0 l/m W-SW 1,00 h 449 W/m 5,3 km/h (1 Bft)
25.04.2013 10:00 16,9 C 57 % 1024,5 hPa 0,0 l/m W-SW 1,00 h 610 W/m 8,4 km/h (2 Bft)
25.04.2013 11:00 18,8 C 52 % 1024,2 hPa 0,0 l/m S 1,00 h 734 W/m 8,3 km/h (2 Bft)
25.04.2013 12:00 20,6 C 44 % 1023,7 hPa 0,0 l/m S-SW 1,00 h 823 W/m 8,3 km/h (2 Bft)
25.04.2013 13:00 21,9 C 38 % 1022,8 hPa 0,0 l/m SO 1,00 h 857 W/m 7,8 km/h (2 Bft)
25.04.2013 14:00 22,6 C 36 % 1021,9 hPa 0,0 l/m O 1,00 h 820 W/m 9,5 km/h (2 Bft)
25.04.2013 15:00 23,1 C 36 % 1021,0 hPa 0,0 l/m O-SO 1,00 h 738 W/m 11,0 km/h (2 Bft)
25.04.2013 16:00 23,5 C 35 % 1020,4 hPa 0,0 l/m SO 1,00 h 621 W/m 10,6 km/h (2 Bft)
25.04.2013 17:00 23,0 C 35 % 1019,7 hPa 0,0 l/m SW 1,00 h 479 W/m 8,0 km/h (2 Bft)
25.04.2013 18:00 22,7 C 33 % 1019,1 hPa 0,0 l/m SW 1,00 h 311 W/m 7,4 km/h (2 Bft)
25.04.2013 19:00 21,3 C 36 % 1018,6 hPa 0,0 l/m N 0,50 h 105 W/m 1,9 km/h (1 Bft)
25.04.2013 20:00 16,9 C 51 % 1018,2 hPa 0,0 l/m N 0,08 h 9 W/m 0,4 km/h (0 Bft)
25.04.2013 21:00 14,4 C 61 % 1018,4 hPa 0,0 l/m N 0,00 h 0 W/m 0,0 km/h (0 Bft)
25.04.2013 22:00 12,7 C 66 % 1018,4 hPa 0,0 l/m N 0,00 h 0 W/m 0,0 km/h (0 Bft)
25.04.2013 23:00 11,6 C 73 % 1018,0 hPa 0,0 l/m N 0,00 h 0 W/m 0,0 km/h (0 Bft)
26.04.2013 00:00 10,6 C 77 % 1017,6 hPa 0,0 l/m N 0,00 h 0 W/m 0,0 km/h (0 Bft)
26.04.2013 01:00 9,7 C 81 % 1017,2 hPa 0,0 l/m N 0,00 h 0 W/m 0,0 km/h (0 Bft)
26.04.2013 02:00 8,9 C 84 % 1016,7 hPa 0,0 l/m N 0,00 h 0 W/m 0,0 km/h (0 Bft)
26.04.2013 03:00 8,2 C 86 % 1016,1 hPa 0,0 l/m N 0,00 h 0 W/m 0,0 km/h (0 Bft)
26.04.2013 04:00 7,7 C 89 % 1015,5 hPa 0,0 l/m N 0,00 h 0 W/m 0,0 km/h (0 Bft)
26.04.2013 05:00 7,3 C 89 % 1015,1 hPa 0,0 l/m N 0,00 h 0 W/m 0,0 km/h (0 Bft)
26.04.2013 06:00 7,2 C 91 % 1014,9 hPa 0,0 l/m N 0,00 h 13 W/m 0,0 km/h (0 Bft)
26.04.2013 07:00 8,1 C 92 % 1014,4 hPa 0,0 l/m N 0,00 h 29 W/m 0,0 km/h (0 Bft)
26.04.2013 08:00 10,1 C 85 % 1014,0 hPa 0,0 l/m N 0,00 h 58 W/m 0,4 km/h (0 Bft)
26.04.2013 09:00 12,6 C 78 % 1013,2 hPa 0,0 l/m S-SW 0,00 h 111 W/m 4,2 km/h (1 Bft)
26.04.2013 10:00 15,1 C 69 % 1012,5 hPa 0,0 l/m S-SW 0,42 h 338 W/m 6,4 km/h (2 Bft)
26.04.2013 11:00 18,9 C 57 % 1011,4 hPa 0,0 l/m S 0,75 h 581 W/m 11,1 km/h (2 Bft)
26.04.2013 12:00 20,8 C 54 % 1010,1 hPa 0,0 l/m S-SW 0,67 h 507 W/m 11,6 km/h (2 Bft)
26.04.2013 13:00 21,1 C 49 % 1009,0 hPa 0,0 l/m SW 0,42 h 437 W/m 15,6 km/h (3 Bft)
26.04.2013 14:00 22,3 C 46 % 1007,9 hPa 0,0 l/m SW 0,83 h 599 W/m 14,8 km/h (3 Bft)
26.04.2013 15:00 22,5 C 45 % 1006,7 hPa 0,0 l/m SW 0,83 h 553 W/m 13,8 km/h (3 Bft)
26.04.2013 16:00 22,8 C 44 % 1005,5 hPa 0,0 l/m W-NW 0,75 h 442 W/m 13,8 km/h (3 Bft)
26.04.2013 17:00 21,1 C 48 % 1004,6 hPa 0,0 l/m W 0,00 h 79 W/m 9,4 km/h (2 Bft)
26.04.2013 18:00 20,1 C 55 % 1003,9 hPa 0,0 l/m W 0,00 h 87 W/m 9,7 km/h (2 Bft)
26.04.2013 19:00 19,2 C 57 % 1003,4 hPa 0,0 l/m W 0,00 h 21 W/m 13,4 km/h (3 Bft)
26.04.2013 20:00 16,5 C 77 % 1004,1 hPa 0,0 l/m N-NW 0,00 h 5 W/m 22,0 km/h (4 Bft)
26.04.2013 21:00 14,4 C 88 % 1004,5 hPa 0,0 l/m N 0,00 h 0 W/m 4,0 km/h (1 Bft)
26.04.2013 22:00 14,0 C 90 % 1004,2 hPa 0,0 l/m N 0,00 h 0 W/m 2,8 km/h (1 Bft)
26.04.2013 23:00 14,0 C 90 % 1003,7 hPa 0,0 l/m SW 0,00 h 0 W/m 8,0 km/h (2 Bft)
27.04.2013 00:00 13,7 C 92 % 1003,2 hPa 0,0 l/m SW 0,00 h 0 W/m 8,0 km/h (2 Bft)
27.04.2013 01:00 13,4 C 92 % 1002,7 hPa 0,0 l/m SW 0,00 h 0 W/m 8,4 km/h (2 Bft)
27.04.2013 02:00 13,0 C 87 % 1002,1 hPa 1,0 l/m W 0,00 h 0 W/m 19,2 km/h (3 Bft)
27.04.2013 03:00 11,9 C 93 % 1001,5 hPa 0,0 l/m SW 0,00 h 0 W/m 9,8 km/h (2 Bft)
27.04.2013 04:00 11,9 C 94 % 1000,5 hPa 0,0 l/m SW 0,00 h 0 W/m 9,1 km/h (2 Bft)
27.04.2013 05:00 11,6 C 94 % 1000,0 hPa 0,0 l/m SW 0,00 h 0 W/m 9,5 km/h (2 Bft)
27.04.2013 06:00 11,4 C 95 % 999,7 hPa 0,0 l/m SW 0,00 h 17 W/m 7,2 km/h (2 Bft)
27.04.2013 07:00 11,7 C 94 % 999,6 hPa 0,0 l/m SW 0,00 h 33 W/m 2,8 km/h (1 Bft)
27.04.2013 08:00 12,6 C 92 % 999,5 hPa 0,0 l/m SW 0,00 h 115 W/m 3,5 km/h (1 Bft)
27.04.2013 09:00 13,7 C 87 % 999,2 hPa 0,0 l/m SW 0,08 h 138 W/m 6,8 km/h (2 Bft)
27.04.2013 10:00 11,4 C 87 % 999,6 hPa 0,0 l/m N 0,00 h 55 W/m 16,6 km/h (3 Bft)
27.04.2013 11:00 9,7 C 87 % 1000,2 hPa 0,0 l/m N-NO 0,00 h 127 W/m 18,4 km/h (3 Bft)
27.04.2013 12:00 10,1 C 84 % 1000,3 hPa 0,0 l/m N-NO 0,00 h 151 W/m 19,3 km/h (3 Bft)
27.04.2013 13:00 9,9 C 84 % 1000,2 hPa 0,0 l/m N-NO 0,00 h 127 W/m 18,1 km/h (3 Bft)
27.04.2013 14:00 9,8 C 85 % 1000,2 hPa 0,0 l/m N-NO 0,00 h 85 W/m 17,2 km/h (3 Bft)
27.04.2013 15:00 8,9 C 88 % 1000,4 hPa 0,0 l/m N-NO 0,00 h 48 W/m 16,5 km/h (3 Bft)
27.04.2013 16:00 8,0 C 90 % 1000,5 hPa 0,0 l/m N 0,00 h 46 W/m 16,0 km/h (3 Bft)
27.04.2013 17:00 7,7 C 89 % 1000,5 hPa 0,0 l/m N 0,00 h 31 W/m 14,4 km/h (3 Bft)
27.04.2013 18:00 7,4 C 89 % 1000,7 hPa 0,0 l/m N-NO 0,00 h 20 W/m 14,0 km/h (3 Bft)
27.04.2013 19:00 7,2 C 89 % 1001,4 hPa 0,0 l/m N 0,00 h 9 W/m 12,0 km/h (2 Bft)
27.04.2013 20:00 6,9 C 91 % 1002,4 hPa 0,0 l/m N 0,00 h 0 W/m 9,3 km/h (2 Bft)
27.04.2013 21:00 6,5 C 94 % 1003,4 hPa 0,2 l/m N-NO 0,00 h 0 W/m 11,1 km/h (2 Bft)
27.04.2013 22:00 6,1 C 95 % 1004,6 hPa 0,2 l/m N-NW 0,00 h 0 W/m 12,9 km/h (3 Bft)
27.04.2013 23:00 5,6 C 95 % 1005,5 hPa 0,2 l/m N-NW 0,00 h 0 W/m 12,2 km/h (2 Bft)
28.04.2013 00:00 5,3 C 95 % 1006,4 hPa 0,0 l/m N-NW 0,00 h 0 W/m 12,1 km/h (2 Bft)
28.04.2013 01:00 5,0 C 95 % 1006,5 hPa 0,0 l/m NO 0,00 h 0 W/m 5,5 km/h (1 Bft)
28.04.2013 02:00 4,8 C 94 % 1007,1 hPa 0,0 l/m NO 0,00 h 0 W/m 4,3 km/h (1 Bft)
28.04.2013 03:00 4,8 C 94 % 1007,8 hPa 0,0 l/m N 0,00 h 0 W/m 6,4 km/h (2 Bft)
28.04.2013 04:00 4,7 C 94 % 1008,5 hPa 0,0 l/m N 0,00 h 0 W/m 6,8 km/h (2 Bft)
28.04.2013 05:00 4,7 C 94 % 1008,9 hPa 0,0 l/m N 0,00 h 0 W/m 4,4 km/h (1 Bft)
28.04.2013 06:00 4,6 C 94 % 1009,5 hPa 0,0 l/m N 0,00 h 10 W/m 4,5 km/h (1 Bft)
28.04.2013 07:00 4,9 C 93 % 1009,9 hPa 0,0 l/m N 0,00 h 52 W/m 4,4 km/h (1 Bft)
28.04.2013 08:00 5,3 C 91 % 1011,4 hPa 0,0 l/m N 0,00 h 46 W/m 4,5 km/h (1 Bft)
28.04.2013 09:00 5,7 C 90 % 1012,2 hPa 0,0 l/m N 0,00 h 101 W/m 4,7 km/h (1 Bft)
28.04.2013 10:00 6,5 C 87 % 1013,1 hPa 0,0 l/m N 0,00 h 167 W/m 5,3 km/h (1 Bft)
28.04.2013 11:00 7,4 C 84 % 1013,7 hPa 0,0 l/m N 0,00 h 195 W/m 4,4 km/h (1 Bft)
28.04.2013 12:00 8,1 C 81 % 1013,9 hPa 0,0 l/m N 0,00 h 162 W/m 5,2 km/h (1 Bft)
28.04.2013 13:00 9,0 C 79 % 1013,9 hPa 0,0 l/m N-NO 0,00 h 211 W/m 5,2 km/h (1 Bft)
28.04.2013 14:00 9,6 C 76 % 1013,9 hPa 0,0 l/m NO 0,00 h 198 W/m 6,2 km/h (2 Bft)
28.04.2013 15:00 10,1 C 74 % 1013,7 hPa 0,0 l/m O 0,00 h 200 W/m 7,8 km/h (2 Bft)
28.04.2013 16:00 10,3 C 73 % 1013,6 hPa 0,0 l/m O-NO 0,00 h 150 W/m 7,5 km/h (2 Bft)
28.04.2013 17:00 10,2 C 74 % 1013,6 hPa 0,0 l/m O-NO 0,00 h 88 W/m 9,2 km/h (2 Bft)
28.04.2013 18:00 9,9 C 76 % 1013,4 hPa 0,0 l/m O-NO 0,00 h 54 W/m 11,4 km/h (2 Bft)
28.04.2013 19:00 9,5 C 78 % 1013,3 hPa 0,0 l/m O-NO 0,00 h 25 W/m 11,0 km/h (2 Bft)
28.04.2013 20:00 9,2 C 80 % 1013,4 hPa 0,0 l/m O-NO 0,00 h 10 W/m 7,5 km/h (2 Bft)
28.04.2013 21:00 8,9 C 81 % 1013,6 hPa 0,0 l/m O-NO 0,00 h 0 W/m 5,9 km/h (2 Bft)
28.04.2013 22:00 8,7 C 83 % 1014,2 hPa 0,0 l/m NO 0,00 h 0 W/m 7,0 km/h (2 Bft)
28.04.2013 23:00 8,3 C 85 % 1014,4 hPa 0,0 l/m NO 0,00 h 0 W/m 5,7 km/h (1 Bft)
Min-Datum _ 24.04.13 25.04.13 27.04.13 - - - - 22.04.13
_ Min-Zeit 06:40 18:25 08:50 - - - - 00:05
Minimum _ 3,6 C 32 % 999,1 hPa - - - - 0,0 km/h (0 Bft)
Max-Datum _ 25.04.13 22.04.13 24.04.13 27.04.13 - 22.04.13 23.04.13 26.04.13
_ Max-Zeit 16:30 06:25 10:25 02:25 - 11:30 14:30 20:15
Maximum _ 23,8 C 98 % 1026,4 hPa 1,0 l/m - 0,08 h 907 W/m 37,0 km/h
NW (5 Bft)
Durchschnitt _ 11,3 C 78 % 1015,2 hPa #1,6 l/m SW #32:35 h 245 W/m 6,0 km/h (2 Bft)